Time;durP1;ratioP1;P1;durP2;ratioP2;P2;SDS_P1;SDS_P2;PMS_P1;PMS_P2;Temp;Humidity;BMP_temperature;BMP_pressure;BME280_temperature;BME280_humidity;BME280_pressure;Samples;Min_cycle;Max_cycle;Signal;HPM_P1;HPM_P2
2021/12/05 00:19:18;;;;;;;;;;;5.40;99.90;6.10;98853.00;;;;334960;28;83669;-90
2021/12/05 00:22:01;;;;;;;;;;;5.50;99.90;6.20;98847.00;;;;333830;29;83998;-90
2021/12/05 00:22:20;;;;;;;;;;;5.50;99.90;6.20;98849.00;;;;333033;29;83412;-90
2021/12/05 00:22:36;;;;;;;;;;;5.50;99.90;6.20;98844.00;;;;335573;28;84887;-90
2021/12/05 00:22:48;;;;;;;;;;;5.50;99.90;6.10;98843.00;;;;335326;29;83148;-89
2021/12/05 00:23:02;;;;;;;;;;;5.50;99.90;6.10;98844.00;;;;336567;28;83017;-90
2021/12/05 00:23:18;;;;;;;;;;;5.60;99.90;6.10;98844.00;;;;336582;28;83362;-90
2021/12/05 00:23:39;;;;;;;;;;;5.50;99.90;6.10;98853.00;;;;337834;28;84706;-91
2021/12/05 00:24:23;;;;;;;;;;;5.50;99.90;6.10;98841.00;;;;335137;29;84356;-90
2021/12/05 00:24:38;;;;;;;;;;;5.50;99.90;6.10;98841.00;;;;337604;28;83667;-90
2021/12/05 00:24:53;;;;;;;;;;;5.50;99.90;6.10;98840.00;;;;336561;28;85141;-89
2021/12/05 00:25:06;;;;;;;;;;;5.50;99.90;6.10;98840.00;;;;336799;28;83292;-90
2021/12/05 00:25:24;;;;;;;;;;;5.50;99.90;6.10;98839.00;;;;333837;29;85529;-90
2021/12/05 00:25:36;;;;;;;;;;;5.50;99.90;6.00;98840.00;;;;332810;29;82302;-90
2021/12/05 00:25:51;;;;;;;;;;;5.50;99.90;6.00;98839.00;;;;335682;28;82752;-90
2021/12/05 00:26:05;;;;;;;;;;;5.50;99.90;6.00;98837.00;;;;335130;29;83306;-90
2021/12/05 00:26:19;;;;;;;;;;;5.50;99.90;6.00;98829.00;;;;336471;28;84440;-91
2021/12/05 00:26:32;;;;;;;;;;;5.50;99.90;6.00;98841.00;;;;335066;28;83536;-90
2021/12/05 00:26:53;;;;;;;;;;;5.50;99.90;6.00;98834.00;;;;336405;28;85244;-90
2021/12/05 00:27:14;;;;;;;;;;;5.50;99.90;6.20;98831.00;;;;333944;29;83219;-90
2021/12/05 00:27:32;;;;;;;;;;;5.50;99.90;6.10;98835.00;;;;333927;28;85066;-90
2021/12/05 00:27:48;;;;;;;;;;;5.50;99.90;6.00;98837.00;;;;340625;28;82371;-90
2021/12/05 00:29:08;;;;;;;;;;;5.50;99.90;6.00;98833.00;;;;333955;29;82489;-91
2021/12/05 00:29:51;;;;;;;;;;;5.50;99.90;6.00;98827.00;;;;334160;28;83396;-90
2021/12/05 00:31:05;;;;;;;;;;;5.40;99.90;6.00;98828.00;;;;334625;28;84272;-90
2021/12/05 00:31:43;;;;;;;;;;;5.40;99.90;6.00;98834.00;;;;335189;29;84126;-90
2021/12/05 00:32:08;;;;;;;;;;;5.50;99.90;6.00;98828.00;;;;336372;28;82577;-90
2021/12/05 00:32:28;;;;;;;;;;;5.40;99.90;6.00;98828.00;;;;337204;28;84042;-90
2021/12/05 00:33:07;;;;;;;;;;;5.40;99.90;6.00;98823.00;;;;337701;28;82373;-90
2021/12/05 00:34:31;;;;;;;;;;;5.50;99.90;6.00;98823.00;;;;339299;28;84408;-90
2021/12/05 00:35:25;;;;;;;;;;;5.40;99.90;6.00;98825.00;;;;335188;29;83579;-90
2021/12/05 00:41:44;;;;;;;;;;;5.40;99.90;6.00;98816.00;;;;339484;28;83256;-90
2021/12/05 00:44:40;;;;;;;;;;;5.40;99.90;6.00;98815.00;;;;336500;28;85169;-90
2021/12/05 00:47:17;;;;;;;;;;;5.40;99.90;6.10;98806.00;;;;335086;28;82459;-90
2021/12/05 00:47:50;;;;;;;;;;;5.40;99.90;6.00;98798.00;;;;336433;28;84182;-90
2021/12/05 00:48:43;;;;;;;;;;;5.40;99.90;6.00;98794.00;;;;341893;28;82431;-90
2021/12/05 00:56:46;;;;;;;;;;;5.40;99.90;6.00;98781.00;;;;340580;28;83272;-90
2021/12/05 00:57:33;;;;;;;;;;;5.40;99.90;6.00;98784.00;;;;336693;28;84425;-90
2021/12/05 00:58:05;;;;;;;;;;;5.40;99.90;5.90;98785.00;;;;331471;29;83260;-90
2021/12/05 01:02:00;;;;;;;;;;;5.40;99.90;5.90;98779.00;;;;339393;28;83595;-91
2021/12/05 01:04:44;;;;;;;;;;;5.40;99.90;6.00;98779.00;;;;327728;29;83283;-90
2021/12/05 01:05:22;;;;;;;;;;;5.40;99.90;5.90;98766.00;;;;329046;29;83911;-91
2021/12/05 01:08:35;;;;;;;;;;;5.40;99.90;6.00;98770.00;;;;350091;27;84883;-89
2021/12/05 01:09:20;;;;;;;;;;;5.40;99.90;6.00;98766.00;;;;347380;28;83850;-90
2021/12/05 01:11:31;;;;;;;;;;;5.40;99.90;6.10;98773.00;;;;349734;27;83511;-89
2021/12/05 01:12:50;;;;;;;;;;;5.40;99.90;6.00;98767.00;;;;345647;28;83400;-88
2021/12/05 01:13:59;;;;;;;;;;;5.50;99.90;6.00;98765.00;;;;343061;28;82355;-92
2021/12/05 01:14:39;;;;;;;;;;;5.40;99.90;6.10;98759.00;;;;343218;28;83193;-91
2021/12/05 01:15:01;;;;;;;;;;;5.50;99.90;6.10;98770.00;;;;344411;28;84689;-92
2021/12/05 01:15:19;;;;;;;;;;;5.50;99.90;6.00;98770.00;;;;345882;28;82292;-91
2021/12/05 01:15:31;;;;;;;;;;;5.50;99.90;6.00;98768.00;;;;344062;28;85527;-91
2021/12/05 01:15:44;;;;;;;;;;;5.50;99.90;6.00;98764.00;;;;345907;28;82455;-92
2021/12/05 01:15:57;;;;;;;;;;;5.50;99.90;6.10;98771.00;;;;343077;28;87315;-91
2021/12/05 01:16:12;;;;;;;;;;;5.50;99.90;6.00;98760.00;;;;342899;28;83509;-93
2021/12/05 01:16:25;;;;;;;;;;;5.40;99.90;6.00;98771.00;;;;345609;28;86970;-92
2021/12/05 01:16:37;;;;;;;;;;;5.50;99.90;6.00;98765.00;;;;345802;28;82451;-91
2021/12/05 01:16:51;;;;;;;;;;;5.50;99.90;6.00;98774.00;;;;342809;28;85041;-91
2021/12/05 01:17:03;;;;;;;;;;;5.50;99.90;6.00;98759.00;;;;344176;28;83542;-92
2021/12/05 01:17:18;;;;;;;;;;;5.50;99.90;6.00;98763.00;;;;342805;28;87302;-92
2021/12/05 01:17:40;;;;;;;;;;;5.50;99.90;6.10;98771.00;;;;343123;28;82328;-91
2021/12/05 01:18:05;;;;;;;;;;;5.50;99.90;6.10;98769.00;;;;344416;28;83869;-92
2021/12/05 01:18:19;;;;;;;;;;;5.50;99.90;6.10;98761.00;;;;342327;28;83638;-92
2021/12/05 01:18:31;;;;;;;;;;;5.50;99.90;6.00;98762.00;;;;340351;28;85203;-92
2021/12/05 01:18:44;;;;;;;;;;;5.50;99.90;6.10;98763.00;;;;343049;28;82577;-92
2021/12/05 01:18:57;;;;;;;;;;;5.50;99.90;6.00;98766.00;;;;344455;28;84897;-92
2021/12/05 01:19:09;;;;;;;;;;;5.50;99.90;6.00;98770.00;;;;343198;28;83128;-92
2021/12/05 01:19:22;;;;;;;;;;;5.50;99.90;6.00;98767.00;;;;345490;28;86228;-92
2021/12/05 01:19:34;;;;;;;;;;;5.50;99.90;5.90;98771.00;;;;345725;28;82349;-90
2021/12/05 01:19:47;;;;;;;;;;;5.50;99.90;5.90;98772.00;;;;345919;28;83080;-92
2021/12/05 01:19:59;;;;;;;;;;;5.50;99.90;6.00;98769.00;;;;345563;28;83435;-92
2021/12/05 01:20:13;;;;;;;;;;;5.50;99.90;5.90;98768.00;;;;344427;28;85221;-91
2021/12/05 01:20:25;;;;;;;;;;;5.50;99.90;6.00;98770.00;;;;344552;28;83364;-92
2021/12/05 01:20:40;;;;;;;;;;;5.50;99.90;6.00;98768.00;;;;345831;28;84154;-92
2021/12/05 01:20:56;;;;;;;;;;;5.40;99.90;6.00;98768.00;;;;345929;28;83386;-92
2021/12/05 01:21:12;;;;;;;;;;;5.50;99.90;6.00;98769.00;;;;344203;28;88040;-92
2021/12/05 01:21:25;;;;;;;;;;;5.50;99.90;6.00;98770.00;;;;344463;28;84060;-92
2021/12/05 01:21:38;;;;;;;;;;;5.50;99.90;5.90;98766.00;;;;344469;28;83849;-92
2021/12/05 01:21:53;;;;;;;;;;;5.40;99.90;5.90;98769.00;;;;342983;28;83362;-92
2021/12/05 01:22:06;;;;;;;;;;;5.40;99.90;5.90;98766.00;;;;343083;28;84876;-91
2021/12/05 01:22:20;;;;;;;;;;;5.40;99.90;5.90;98758.00;;;;345626;28;83574;-91
2021/12/05 01:22:35;;;;;;;;;;;5.40;99.90;5.90;98760.00;;;;341561;28;85459;-92
2021/12/05 01:22:57;;;;;;;;;;;5.40;99.90;6.00;98766.00;;;;343156;28;82372;-92
2021/12/05 01:23:50;;;;;;;;;;;5.50;99.90;5.90;98770.00;;;;342921;28;85486;-91
2021/12/05 01:24:01;;;;;;;;;;;5.40;99.90;5.90;98766.00;;;;343036;28;82245;-92
2021/12/05 01:24:48;;;;;;;;;;;5.40;99.90;5.90;98752.00;;;;344435;28;85134;-92
2021/12/05 01:25:41;;;;;;;;;;;5.40;99.90;5.80;98762.00;;;;342415;28;83691;-92
2021/12/05 01:26:02;;;;;;;;;;;5.40;99.90;6.00;98763.00;;;;342680;28;83425;-91
2021/12/05 01:26:25;;;;;;;;;;;5.40;99.90;6.00;98759.00;;;;344248;28;87471;-93
2021/12/05 01:26:58;;;;;;;;;;;5.40;99.90;6.00;98759.00;;;;344267;28;84590;-92
2021/12/05 01:27:47;;;;;;;;;;;5.40;99.90;6.00;98767.00;;;;342965;28;82589;-92
2021/12/05 01:29:24;;;;;;;;;;;5.50;99.90;6.00;98766.00;;;;344090;28;84414;-92
2021/12/05 01:29:50;;;;;;;;;;;5.40;99.90;6.00;98760.00;;;;343125;28;83226;-91
2021/12/05 01:30:10;;;;;;;;;;;5.40;99.90;6.00;98762.00;;;;344291;28;83683;-92
2021/12/05 01:31:12;;;;;;;;;;;5.40;99.90;6.00;98765.00;;;;341544;28;83541;-92
2021/12/05 01:33:10;;;;;;;;;;;5.40;99.90;6.00;98769.00;;;;343125;28;82381;-92
2021/12/05 01:34:12;;;;;;;;;;;5.40;99.90;6.00;98762.00;;;;343075;28;84408;-91
2021/12/05 01:34:36;;;;;;;;;;;5.40;99.90;6.10;98763.00;;;;342870;28;83271;-91
2021/12/05 01:35:31;;;;;;;;;;;5.40;99.90;6.10;98754.00;;;;343098;28;83245;-92
2021/12/05 01:36:00;;;;;;;;;;;5.40;99.90;6.20;98752.00;;;;344510;28;84238;-92
2021/12/05 01:37:23;;;;;;;;;;;5.50;99.90;5.90;98764.00;;;;338828;28;83470;-92
2021/12/05 01:37:53;;;;;;;;;;;5.40;99.90;6.10;98757.00;;;;340426;28;83539;-92
2021/12/05 01:38:21;;;;;;;;;;;5.50;99.90;6.00;98755.00;;;;340317;28;83310;-92
2021/12/05 01:38:59;;;;;;;;;;;5.50;99.90;6.10;98755.00;;;;344206;28;82607;-92
2021/12/05 01:39:41;;;;;;;;;;;5.40;99.90;6.10;98757.00;;;;344323;28;85174;-92
2021/12/05 01:54:26;;;;;;;;;;;5.30;99.90;5.80;98727.00;;;;345568;28;86090;-91
2021/12/05 01:55:45;;;;;;;;;;;5.30;99.90;5.70;98730.00;;;;344671;28;83731;-92
2021/12/05 01:57:10;;;;;;;;;;;5.20;99.90;5.80;98727.00;;;;344279;28;84411;-92
2021/12/05 01:58:17;;;;;;;;;;;5.30;99.90;6.00;98727.00;;;;344027;28;86179;-92
2021/12/05 02:03:07;;;;;;;;;;;5.20;99.90;5.70;98713.00;;;;341665;28;83462;-90
2021/12/05 02:03:12;;;;;;;;;;;5.20;99.90;6.00;98702.00;;;;343129;28;83597;-91
2021/12/05 02:08:37;;;;;;;;;;;5.10;99.90;5.70;98705.00;;;;342981;28;83312;-91
2021/12/05 02:08:44;;;;;;;;;;;5.10;99.90;5.60;98700.00;;;;343956;28;84101;-92
2021/12/05 02:11:20;;;;;;;;;;;5.10;99.90;5.60;98696.00;;;;340109;28;86305;-91
2021/12/05 02:12:21;;;;;;;;;;;5.00;99.90;5.50;98701.00;;;;341377;28;87618;-91
2021/12/05 02:16:06;;;;;;;;;;;4.90;99.90;5.50;98695.00;;;;341436;28;85061;-92
2021/12/05 02:35:40;;;;;;;;;;;4.40;99.90;5.00;98677.00;;;;344511;28;83517;-89
2021/12/05 02:36:21;;;;;;;;;;;4.40;99.90;5.00;98674.00;;;;341480;28;86984;-88
2021/12/05 02:37:20;;;;;;;;;;;4.40;99.90;4.90;98672.00;;;;340286;28;83467;-89
2021/12/05 02:38:11;;;;;;;;;;;4.40;99.90;5.00;98658.00;;;;344467;28;83295;-89
2021/12/05 02:41:10;;;;;;;;;;;4.30;99.90;5.00;98666.00;;;;343101;28;83138;-89
2021/12/05 02:41:23;;;;;;;;;;;4.30;99.90;5.10;98662.00;;;;344138;28;86232;-89
2021/12/05 02:41:38;;;;;;;;;;;4.30;99.90;5.10;98662.00;;;;341733;28;83383;-89
2021/12/05 02:41:52;;;;;;;;;;;4.30;99.90;5.10;98660.00;;;;341575;28;84798;-89
2021/12/05 02:42:53;;;;;;;;;;;4.30;99.90;5.10;98663.00;;;;344219;28;82337;-89
2021/12/05 02:43:07;;;;;;;;;;;4.40;99.90;5.00;98660.00;;;;338006;28;84232;-87
2021/12/05 02:43:19;;;;;;;;;;;4.40;99.90;5.00;98653.00;;;;340348;28;83262;-89
2021/12/05 02:43:35;;;;;;;;;;;4.40;99.90;5.00;98660.00;;;;340976;28;87460;-89
2021/12/05 02:43:55;;;;;;;;;;;4.40;99.90;5.10;98660.00;;;;342953;28;83508;-89
2021/12/05 02:44:40;;;;;;;;;;;4.30;99.90;5.00;98667.00;;;;344362;28;83773;-89
2021/12/05 02:44:46;;;;;;;;;;;4.40;99.90;4.90;98661.00;;;;342760;28;83357;-90
2021/12/05 02:44:59;;;;;;;;;;;4.30;99.90;4.80;98656.00;;;;344453;28;83866;-90
2021/12/05 02:45:11;;;;;;;;;;;4.30;99.90;4.80;98659.00;;;;344429;28;83619;-88
2021/12/05 02:45:23;;;;;;;;;;;4.30;99.90;4.90;98664.00;;;;339648;28;87345;-89
2021/12/05 02:45:37;;;;;;;;;;;4.30;99.90;5.00;98661.00;;;;340176;28;83469;-89
2021/12/05 02:45:49;;;;;;;;;;;4.30;99.90;5.00;98666.00;;;;337741;28;85478;-89
2021/12/05 02:46:04;;;;;;;;;;;4.30;99.90;5.00;98653.00;;;;342573;28;83532;-89
2021/12/05 02:46:18;;;;;;;;;;;4.30;99.90;5.00;98651.00;;;;341770;28;84454;-89
2021/12/05 02:46:30;;;;;;;;;;;4.30;99.90;4.90;98662.00;;;;342136;28;82452;-89
2021/12/05 02:46:44;;;;;;;;;;;4.30;99.90;4.90;98659.00;;;;343030;28;85251;-89
2021/12/05 02:47:02;;;;;;;;;;;4.30;99.90;5.00;98658.00;;;;340282;28;83329;-89
2021/12/05 02:47:16;;;;;;;;;;;4.30;99.90;5.00;98663.00;;;;342527;28;87566;-87
2021/12/05 02:47:28;;;;;;;;;;;4.30;99.90;5.00;98651.00;;;;342940;28;82516;-90
2021/12/05 02:47:47;;;;;;;;;;;4.30;99.90;4.90;98655.00;;;;340312;28;85232;-89
2021/12/05 02:47:59;;;;;;;;;;;4.40;99.90;4.80;98656.00;;;;343027;28;83330;-89
2021/12/05 02:48:12;;;;;;;;;;;4.30;99.90;4.90;98651.00;;;;344433;28;84788;-89
2021/12/05 02:48:26;;;;;;;;;;;4.30;99.90;5.00;98654.00;;;;339569;28;83402;-89
2021/12/05 02:48:39;;;;;;;;;;;4.30;99.90;4.90;98656.00;;;;340796;28;83860;-89
2021/12/05 02:48:51;;;;;;;;;;;4.30;99.90;4.80;98655.00;;;;343112;28;83258;-89
2021/12/05 02:49:04;;;;;;;;;;;4.30;99.90;4.80;98664.00;;;;341737;28;85411;-89
2021/12/05 02:49:16;;;;;;;;;;;4.30;99.90;4.80;98661.00;;;;341517;28;83734;-89
2021/12/05 02:49:30;;;;;;;;;;;4.30;99.90;4.90;98665.00;;;;340538;28;87459;-89
2021/12/05 02:49:44;;;;;;;;;;;4.30;99.90;5.00;98657.00;;;;340429;28;83303;-89
2021/12/05 02:49:58;;;;;;;;;;;4.30;99.90;5.00;98657.00;;;;342856;28;85014;-89
2021/12/05 02:50:11;;;;;;;;;;;4.30;99.90;5.00;98664.00;;;;341668;28;83291;-89
2021/12/05 02:50:24;;;;;;;;;;;4.30;99.90;4.90;98658.00;;;;342835;28;86162;-89
2021/12/05 02:50:36;;;;;;;;;;;4.30;99.90;4.90;98661.00;;;;341583;28;83510;-88
2021/12/05 02:50:48;;;;;;;;;;;4.30;99.90;4.90;98662.00;;;;344531;28;82433;-89
2021/12/05 02:51:03;;;;;;;;;;;4.30;99.90;4.90;98654.00;;;;341865;28;82287;-89
2021/12/05 02:51:19;;;;;;;;;;;4.30;99.90;4.80;98661.00;;;;342821;28;86347;-88
2021/12/05 02:51:32;;;;;;;;;;;4.30;99.90;4.80;98654.00;;;;338193;28;83512;-89
2021/12/05 02:51:52;;;;;;;;;;;4.30;99.90;4.80;98661.00;;;;340411;28;83572;-89
2021/12/05 02:52:08;;;;;;;;;;;4.30;99.90;4.70;98654.00;;;;340200;28;82456;-89
2021/12/05 02:52:26;;;;;;;;;;;4.30;99.90;4.70;98649.00;;;;337702;28;83655;-90
2021/12/05 02:52:40;;;;;;;;;;;4.30;99.90;4.70;98655.00;;;;340328;28;83648;-89
2021/12/05 02:52:57;;;;;;;;;;;4.30;99.90;4.70;98659.00;;;;340166;28;84971;-89
2021/12/05 02:53:20;;;;;;;;;;;4.30;99.90;4.80;98650.00;;;;341633;28;83428;-89
2021/12/05 02:54:16;;;;;;;;;;;4.30;99.90;4.80;98659.00;;;;341651;28;83225;-88
2021/12/05 02:54:17;;;;;;;;;;;4.30;99.90;4.80;98656.00;;;;341171;28;84181;-89
2021/12/05 02:54:29;;;;;;;;;;;4.30;99.90;4.70;98651.00;;;;339908;28;84980;-89
2021/12/05 02:54:50;;;;;;;;;;;4.30;99.90;4.80;98660.00;;;;342084;28;82659;-89
2021/12/05 02:55:16;;;;;;;;;;;4.20;99.90;5.00;98644.00;;;;343051;28;84102;-88
2021/12/05 02:55:41;;;;;;;;;;;4.30;99.90;4.90;98660.00;;;;340875;28;83985;-89
2021/12/05 02:55:53;;;;;;;;;;;4.30;99.90;4.90;98657.00;;;;347179;28;86107;-89
2021/12/05 02:56:04;;;;;;;;;;;4.30;99.90;4.90;98649.00;;;;346040;28;82534;-89
2021/12/05 02:56:17;;;;;;;;;;;4.30;99.90;4.90;98652.00;;;;347394;28;82579;-90
2021/12/05 02:56:31;;;;;;;;;;;4.30;99.90;4.90;98656.00;;;;340325;28;83248;-89
2021/12/05 02:56:48;;;;;;;;;;;4.30;99.90;4.90;98656.00;;;;343077;28;87544;-89
2021/12/05 02:57:00;;;;;;;;;;;4.30;99.90;4.90;98662.00;;;;344865;28;82231;-89
2021/12/05 02:57:12;;;;;;;;;;;4.30;99.90;4.90;98658.00;;;;344360;28;86450;-88
2021/12/05 02:57:50;;;;;;;;;;;4.30;99.90;4.90;98655.00;;;;341540;28;83625;-89
2021/12/05 02:58:02;;;;;;;;;;;4.30;99.90;4.90;98658.00;;;;342737;28;83834;-89
2021/12/05 02:58:24;;;;;;;;;;;4.30;99.90;4.90;98645.00;;;;344650;28;83367;-89
2021/12/05 02:58:59;;;;;;;;;;;4.30;99.90;4.80;98650.00;;;;342962;28;83548;-89
2021/12/05 02:59:42;;;;;;;;;;;4.30;99.90;5.00;98648.00;;;;340326;28;84018;-89
2021/12/05 02:59:57;;;;;;;;;;;4.30;99.90;5.10;98654.00;;;;343072;28;82565;-88
2021/12/05 03:00:14;;;;;;;;;;;4.30;99.90;5.00;98653.00;;;;342009;28;84222;-88
2021/12/05 03:01:06;;;;;;;;;;;4.30;99.90;5.00;98652.00;;;;338631;28;87379;-89
2021/12/05 03:01:20;;;;;;;;;;;4.40;99.90;5.00;98642.00;;;;340362;28;85344;-87
2021/12/05 03:01:43;;;;;;;;;;;4.30;99.90;4.90;98653.00;;;;343164;28;83573;-89
2021/12/05 03:02:02;;;;;;;;;;;4.40;99.90;4.90;98648.00;;;;343430;28;84899;-88
2021/12/05 03:02:17;;;;;;;;;;;4.30;99.90;4.80;98644.00;;;;343125;28;83738;-88
2021/12/05 03:02:38;;;;;;;;;;;4.30;99.90;4.90;98640.00;;;;342062;28;84641;-89
2021/12/05 03:02:52;;;;;;;;;;;4.30;99.90;5.00;98639.00;;;;342123;28;83391;-89
2021/12/05 03:03:06;;;;;;;;;;;4.30;99.90;4.90;98636.00;;;;344717;28;84337;-89
2021/12/05 03:03:23;;;;;;;;;;;4.30;99.90;5.00;98634.00;;;;340872;28;83457;-89
2021/12/05 03:03:35;;;;;;;;;;;4.30;99.90;5.00;98635.00;;;;342305;28;83767;-88
2021/12/05 03:03:47;;;;;;;;;;;4.30;99.90;4.90;98636.00;;;;342544;28;82583;-88
2021/12/05 03:04:00;;;;;;;;;;;4.30;99.90;4.80;98628.00;;;;341609;28;83364;-89
2021/12/05 03:04:11;;;;;;;;;;;4.30;99.90;4.90;98639.00;;;;344862;28;83485;-88
2021/12/05 03:04:26;;;;;;;;;;;4.30;99.90;5.00;98633.00;;;;343269;28;85915;-89
2021/12/05 03:04:42;;;;;;;;;;;4.30;99.90;5.10;98637.00;;;;340582;28;82662;-90
2021/12/05 03:04:58;;;;;;;;;;;4.30;99.90;5.10;98639.00;;;;343691;28;82469;-89
2021/12/05 03:05:14;;;;;;;;;;;4.30;99.90;5.10;98632.00;;;;343830;28;82264;-89
2021/12/05 03:05:26;;;;;;;;;;;4.30;99.90;5.10;98633.00;;;;344549;28;86542;-89
2021/12/05 03:05:43;;;;;;;;;;;4.30;99.90;5.10;98624.00;;;;343833;28;83297;-87
2021/12/05 03:06:02;;;;;;;;;;;4.40;99.90;5.00;98644.00;;;;343390;28;82902;-87
2021/12/05 03:06:19;;;;;;;;;;;4.40;99.90;5.00;98633.00;;;;343755;28;82511;-90
2021/12/05 03:06:33;;;;;;;;;;;4.40;99.90;5.00;98633.00;;;;340345;28;83756;-89
2021/12/05 03:06:52;;;;;;;;;;;4.40;99.90;5.00;98627.00;;;;341525;28;83630;-89
2021/12/05 03:07:07;;;;;;;;;;;4.40;99.90;5.10;98630.00;;;;341806;28;85574;-88
2021/12/05 03:07:25;;;;;;;;;;;4.40;99.90;5.00;98629.00;;;;341801;28;83630;-88
2021/12/05 03:07:40;;;;;;;;;;;4.40;99.90;5.00;98624.00;;;;341901;28;85542;-90
2021/12/05 03:07:58;;;;;;;;;;;4.30;99.90;4.90;98626.00;;;;343127;28;82435;-89
2021/12/05 03:08:10;;;;;;;;;;;4.40;99.90;4.90;98620.00;;;;339080;28;82641;-89
2021/12/05 03:08:22;;;;;;;;;;;4.40;99.90;5.00;98640.00;;;;340519;28;83405;-90
2021/12/05 03:08:33;;;;;;;;;;;4.30;99.90;4.90;98626.00;;;;342821;28;84213;-90
2021/12/05 03:08:47;;;;;;;;;;;4.30;99.90;4.90;98627.00;;;;342934;28;83276;-89
2021/12/05 03:09:01;;;;;;;;;;;4.30;99.90;4.90;98621.00;;;;342980;28;83983;-89
2021/12/05 03:09:13;;;;;;;;;;;4.40;99.90;5.00;98628.00;;;;345803;28;82360;-89
2021/12/05 03:09:25;;;;;;;;;;;4.30;99.90;4.90;98630.00;;;;345754;28;85840;-89
2021/12/05 03:09:38;;;;;;;;;;;4.30;99.90;4.90;98621.00;;;;344286;28;83284;-89
2021/12/05 03:09:50;;;;;;;;;;;4.30;99.90;4.90;98622.00;;;;344406;28;82468;-89
2021/12/05 03:10:01;;;;;;;;;;;4.30;99.90;4.90;98622.00;;;;344292;28;82390;-89
2021/12/05 03:10:16;;;;;;;;;;;4.30;99.90;4.90;98622.00;;;;344057;28;87816;-89
2021/12/05 03:10:28;;;;;;;;;;;4.30;99.90;5.00;98627.00;;;;343044;28;83383;-89
2021/12/05 03:10:40;;;;;;;;;;;4.30;99.90;4.90;98626.00;;;;345476;28;85149;-89
2021/12/05 03:10:52;;;;;;;;;;;4.30;99.90;5.00;98631.00;;;;345778;28;83454;-89
2021/12/05 03:11:04;;;;;;;;;;;4.30;99.90;5.00;98624.00;;;;345404;28;86836;-89
2021/12/05 03:11:16;;;;;;;;;;;4.30;99.90;5.10;98625.00;;;;344435;28;82271;-88
2021/12/05 03:11:28;;;;;;;;;;;4.30;99.90;5.20;98618.00;;;;345684;28;83969;-90
2021/12/05 03:11:41;;;;;;;;;;;4.30;99.90;5.10;98618.00;;;;344522;28;83256;-89
2021/12/05 03:11:53;;;;;;;;;;;4.40;99.90;5.10;98625.00;;;;344278;28;85300;-89
2021/12/05 03:12:05;;;;;;;;;;;4.40;99.90;5.00;98622.00;;;;344349;28;83421;-89
2021/12/05 03:12:18;;;;;;;;;;;4.40;99.90;5.10;98623.00;;;;344398;28;84239;-89
2021/12/05 03:12:33;;;;;;;;;;;4.40;99.90;5.10;98618.00;;;;345548;28;82534;-89
2021/12/05 03:12:49;;;;;;;;;;;4.40;99.90;5.00;98621.00;;;;343984;28;86065;-89
2021/12/05 03:13:01;;;;;;;;;;;4.40;99.90;5.00;98621.00;;;;344102;28;82660;-89
2021/12/05 03:13:13;;;;;;;;;;;4.40;99.90;5.00;98620.00;;;;345557;28;86716;-89
2021/12/05 03:13:26;;;;;;;;;;;4.40;99.90;5.10;98608.00;;;;345867;28;83401;-89
2021/12/05 03:13:39;;;;;;;;;;;4.40;99.90;5.00;98621.00;;;;344055;28;87687;-89
2021/12/05 03:13:51;;;;;;;;;;;4.40;99.90;5.00;98612.00;;;;347056;28;82428;-89
2021/12/05 03:14:03;;;;;;;;;;;4.40;99.90;5.10;98606.00;;;;345511;28;87598;-89
2021/12/05 03:14:15;;;;;;;;;;;4.40;99.90;5.10;98614.00;;;;345979;28;83078;-89
2021/12/05 03:14:27;;;;;;;;;;;4.40;99.90;5.10;98612.00;;;;345859;28;83660;-89
2021/12/05 03:14:39;;;;;;;;;;;4.40;99.90;5.00;98615.00;;;;345648;28;82348;-88
2021/12/05 03:14:51;;;;;;;;;;;4.40;99.90;5.00;98612.00;;;;344077;28;86668;-89
2021/12/05 03:15:05;;;;;;;;;;;4.40;99.90;5.20;98616.00;;;;341932;28;83436;-89
2021/12/05 03:15:17;;;;;;;;;;;4.40;99.90;5.20;98609.00;;;;345706;28;83920;-88
2021/12/05 03:15:29;;;;;;;;;;;4.40;99.90;5.10;98609.00;;;;347462;27;83533;-89
2021/12/05 03:15:40;;;;;;;;;;;4.40;99.90;5.10;98611.00;;;;347385;27;86753;-89
2021/12/05 03:15:55;;;;;;;;;;;4.40;99.90;5.10;98608.00;;;;344434;28;83235;-88
2021/12/05 03:16:11;;;;;;;;;;;4.40;99.90;5.10;98611.00;;;;345612;28;84287;-89
2021/12/05 03:16:24;;;;;;;;;;;4.40;99.90;5.10;98611.00;;;;343343;28;83604;-89
2021/12/05 03:16:36;;;;;;;;;;;4.40;99.90;5.20;98611.00;;;;344287;28;85211;-88
2021/12/05 03:16:48;;;;;;;;;;;4.40;99.90;5.10;98607.00;;;;347084;28;83481;-88
2021/12/05 03:17:00;;;;;;;;;;;4.40;99.90;5.10;98614.00;;;;346928;28;87309;-88
2021/12/05 03:17:12;;;;;;;;;;;4.40;99.90;5.00;98607.00;;;;347052;28;83238;-89
2021/12/05 03:17:24;;;;;;;;;;;4.40;99.90;5.00;98613.00;;;;345530;28;85632;-88
2021/12/05 03:17:36;;;;;;;;;;;4.40;99.90;5.00;98615.00;;;;344641;28;82401;-88
2021/12/05 03:17:48;;;;;;;;;;;4.40;99.90;5.00;98615.00;;;;345748;28;85533;-88
2021/12/05 03:18:00;;;;;;;;;;;4.40;99.90;5.00;98612.00;;;;347228;28;82504;-89
2021/12/05 03:18:12;;;;;;;;;;;4.40;99.90;4.90;98604.00;;;;346932;28;85795;-89
2021/12/05 03:18:24;;;;;;;;;;;4.40;99.90;4.90;98601.00;;;;346265;28;83577;-88
2021/12/05 03:18:40;;;;;;;;;;;4.40;99.90;5.00;98613.00;;;;344332;28;84145;-89
2021/12/05 03:18:52;;;;;;;;;;;4.30;99.90;4.90;98608.00;;;;347286;28;82343;-89
2021/12/05 03:19:05;;;;;;;;;;;4.40;99.90;5.00;98605.00;;;;345518;28;82931;-89
2021/12/05 03:19:17;;;;;;;;;;;4.40;99.90;5.00;98601.00;;;;345817;28;82341;-89
2021/12/05 03:19:28;;;;;;;;;;;4.40;99.90;4.90;98604.00;;;;344705;28;86392;-89
2021/12/05 03:19:40;;;;;;;;;;;4.30;99.90;4.90;98604.00;;;;345323;28;83640;-88
2021/12/05 03:19:52;;;;;;;;;;;4.40;99.90;4.80;98609.00;;;;342919;28;83730;-89
2021/12/05 03:20:05;;;;;;;;;;;4.30;99.90;4.80;98605.00;;;;344434;28;83384;-89
2021/12/05 03:20:17;;;;;;;;;;;4.30;99.90;4.80;98609.00;;;;345564;28;85333;-88
2021/12/05 03:20:29;;;;;;;;;;;4.30;99.90;4.80;98603.00;;;;345583;28;83442;-89
2021/12/05 03:20:41;;;;;;;;;;;4.30;99.90;4.80;98605.00;;;;345158;28;83009;-89
2021/12/05 03:20:53;;;;;;;;;;;4.30;99.90;4.80;98606.00;;;;345763;28;83523;-90
2021/12/05 03:21:06;;;;;;;;;;;4.30;99.90;4.80;98601.00;;;;344080;28;86831;-89
2021/12/05 03:21:18;;;;;;;;;;;4.30;99.90;4.80;98610.00;;;;344306;28;83367;-89
2021/12/05 03:21:31;;;;;;;;;;;4.30;99.90;4.80;98610.00;;;;347596;27;85408;-89
2021/12/05 03:21:43;;;;;;;;;;;4.30;99.90;4.80;98608.00;;;;345543;28;82664;-88
2021/12/05 03:21:54;;;;;;;;;;;4.30;99.90;4.80;98611.00;;;;345687;28;84492;-87
2021/12/05 03:22:06;;;;;;;;;;;4.30;99.90;4.80;98612.00;;;;347036;28;82711;-89
2021/12/05 03:22:18;;;;;;;;;;;4.30;99.90;4.80;98608.00;;;;346906;28;87262;-89
2021/12/05 03:22:30;;;;;;;;;;;4.30;99.90;4.80;98608.00;;;;346565;28;82482;-89
2021/12/05 03:22:42;;;;;;;;;;;4.30;99.90;4.80;98604.00;;;;345579;28;83515;-89
2021/12/05 03:22:53;;;;;;;;;;;4.30;99.90;4.80;98608.00;;;;344316;28;82432;-89
2021/12/05 03:23:05;;;;;;;;;;;4.20;99.90;4.80;98602.00;;;;345661;28;85091;-89
2021/12/05 03:23:17;;;;;;;;;;;4.30;99.90;4.80;98609.00;;;;345773;28;83307;-89
2021/12/05 03:23:29;;;;;;;;;;;4.20;99.90;4.90;98605.00;;;;344288;28;87760;-89
2021/12/05 03:23:42;;;;;;;;;;;4.30;99.90;4.90;98613.00;;;;345618;28;82496;-89
2021/12/05 03:23:54;;;;;;;;;;;4.30;99.90;4.70;98609.00;;;;344151;28;86397;-88
2021/12/05 03:24:06;;;;;;;;;;;4.20;99.90;4.70;98603.00;;;;345769;28;82306;-89
2021/12/05 03:24:21;;;;;;;;;;;4.20;99.90;4.70;98604.00;;;;344378;28;83900;-90
2021/12/05 03:24:33;;;;;;;;;;;4.20;99.90;4.70;98613.00;;;;344250;28;85060;-89
2021/12/05 03:24:45;;;;;;;;;;;4.20;99.90;4.70;98611.00;;;;344410;28;82486;-88
2021/12/05 03:24:57;;;;;;;;;;;4.20;99.90;4.70;98605.00;;;;345126;28;82322;-89
2021/12/05 03:25:09;;;;;;;;;;;4.20;99.90;4.70;98601.00;;;;345753;28;85007;-89
2021/12/05 03:25:21;;;;;;;;;;;4.20;99.90;4.70;98608.00;;;;345710;28;83468;-89
2021/12/05 03:25:33;;;;;;;;;;;4.20;99.90;4.70;98611.00;;;;346406;28;86058;-89
2021/12/05 03:25:45;;;;;;;;;;;4.20;99.90;4.80;98601.00;;;;345585;28;83418;-89
2021/12/05 03:25:57;;;;;;;;;;;4.20;99.90;4.90;98610.00;;;;342930;28;83015;-89
2021/12/05 03:26:11;;;;;;;;;;;4.20;99.90;4.80;98606.00;;;;344335;28;83533;-90
2021/12/05 03:26:25;;;;;;;;;;;4.20;99.90;4.90;98604.00;;;;348192;27;85180;-89
2021/12/05 03:26:38;;;;;;;;;;;4.20;99.90;4.80;98604.00;;;;345733;28;83372;-89
2021/12/05 03:26:51;;;;;;;;;;;4.20;99.90;4.90;98603.00;;;;344324;28;84290;-89
2021/12/05 03:27:03;;;;;;;;;;;4.20;99.90;4.80;98602.00;;;;347281;28;83252;-89